sensor_id;sensor_type;location;lat;lon;timestamp;pressure;altitude;pressure_sealevel;temperature;humidity
82148;BME280;71718;50.480;12.110;2023-11-21T00:01:58;97020.44;;;6.73;73.76
82148;BME280;71718;50.480;12.110;2023-11-21T00:04:24;97022.22;;;6.72;73.86
82148;BME280;71718;50.480;12.110;2023-11-21T00:06:51;97028.16;;;6.73;73.84
82148;BME280;71718;50.480;12.110;2023-11-21T00:09:17;97038.31;;;6.74;74.09
82148;BME280;71718;50.480;12.110;2023-11-21T00:11:44;97028.56;;;6.76;73.57
82148;BME280;71718;50.480;12.110;2023-11-21T00:14:11;97031.94;;;6.77;73.42
82148;BME280;71718;50.480;12.110;2023-11-21T00:16:37;97029.38;;;6.77;73.66
82148;BME280;71718;50.480;12.110;2023-11-21T00:19:04;97023.22;;;6.78;73.60
82148;BME280;71718;50.480;12.110;2023-11-21T00:21:30;97024.00;;;6.79;74.01
82148;BME280;71718;50.480;12.110;2023-11-21T00:23:56;97027.38;;;6.79;74.66
82148;BME280;71718;50.480;12.110;2023-11-21T00:26:23;97033.94;;;6.75;73.67
82148;BME280;71718;50.480;12.110;2023-11-21T00:28:50;97023.81;;;6.73;73.82
82148;BME280;71718;50.480;12.110;2023-11-21T00:31:16;97030.75;;;6.73;73.43
82148;BME280;71718;50.480;12.110;2023-11-21T00:33:43;97028.16;;;6.73;73.75
82148;BME280;71718;50.480;12.110;2023-11-21T00:36:09;97034.94;;;6.74;73.21
82148;BME280;71718;50.480;12.110;2023-11-21T00:38:36;97041.88;;;6.73;73.17
82148;BME280;71718;50.480;12.110;2023-11-21T00:41:03;97039.28;;;6.73;73.60
82148;BME280;71718;50.480;12.110;2023-11-21T00:43:29;97042.66;;;6.74;73.39
82148;BME280;71718;50.480;12.110;2023-11-21T00:45:55;97041.06;;;6.73;73.44
82148;BME280;71718;50.480;12.110;2023-11-21T00:48:22;97057.97;;;6.75;72.88
82148;BME280;71718;50.480;12.110;2023-11-21T00:50:48;97039.09;;;6.75;73.00
82148;BME280;71718;50.480;12.110;2023-11-21T00:53:15;97046.03;;;6.74;73.29
82148;BME280;71718;50.480;12.110;2023-11-21T00:55:41;97046.84;;;6.75;73.41
82148;BME280;71718;50.480;12.110;2023-11-21T00:58:07;97041.47;;;6.76;73.55
82148;BME280;71718;50.480;12.110;2023-11-21T01:00:34;97043.28;;;6.76;73.30
82148;BME280;71718;50.480;12.110;2023-11-21T01:03:00;97049.22;;;6.76;73.18
82148;BME280;71718;50.480;12.110;2023-11-21T01:05:27;97047.44;;;6.77;73.27
82148;BME280;71718;50.480;12.110;2023-11-21T01:07:53;97049.22;;;6.76;73.13
82148;BME280;71718;50.480;12.110;2023-11-21T01:10:20;97056.75;;;6.78;72.87
82148;BME280;71718;50.480;12.110;2023-11-21T01:12:46;97053.78;;;6.74;73.05
82148;BME280;71718;50.480;12.110;2023-11-21T01:15:12;97061.34;;;6.76;72.98
82148;BME280;71718;50.480;12.110;2023-11-21T01:17:39;97052.59;;;6.77;73.12
82148;BME280;71718;50.480;12.110;2023-11-21T01:20:06;97056.56;;;6.80;73.07
82148;BME280;71718;50.480;12.110;2023-11-21T01:22:32;97062.72;;;6.79;73.22
82148;BME280;71718;50.480;12.110;2023-11-21T01:24:59;97059.97;;;6.80;72.79
82148;BME280;71718;50.480;12.110;2023-11-21T01:27:25;97060.75;;;6.81;72.84
82148;BME280;71718;50.480;12.110;2023-11-21T01:29:52;97066.72;;;6.81;72.97
82148;BME280;71718;50.480;12.110;2023-11-21T01:32:18;97074.47;;;6.81;72.98
82148;BME280;71718;50.480;12.110;2023-11-21T01:34:44;97073.44;;;6.82;72.90
82148;BME280;71718;50.480;12.110;2023-11-21T01:37:11;97064.50;;;6.78;73.86
82148;BME280;71718;50.480;12.110;2023-11-21T01:39:37;97057.16;;;6.75;73.20
82148;BME280;71718;50.480;12.110;2023-11-21T01:42:04;97062.50;;;6.73;73.22
82148;BME280;71718;50.480;12.110;2023-11-21T01:44:31;97059.94;;;6.73;73.35
82148;BME280;71718;50.480;12.110;2023-11-21T01:46:57;97065.09;;;6.73;73.33
82148;BME280;71718;50.480;12.110;2023-11-21T01:49:24;97060.72;;;6.74;72.78
82148;BME280;71718;50.480;12.110;2023-11-21T01:51:50;97059.75;;;6.75;73.10
82148;BME280;71718;50.480;12.110;2023-11-21T01:54:18;97051.22;;;6.74;72.75
82148;BME280;71718;50.480;12.110;2023-11-21T01:56:45;97064.28;;;6.73;73.09
82148;BME280;71718;50.480;12.110;2023-11-21T01:59:18;97060.34;;;6.70;73.05
82148;BME280;71718;50.480;12.110;2023-11-21T02:01:46;97057.53;;;6.65;73.46
82148;BME280;71718;50.480;12.110;2023-11-21T02:04:13;97052.75;;;6.62;72.97
82148;BME280;71718;50.480;12.110;2023-11-21T02:06:40;97056.53;;;6.60;73.29
82148;BME280;71718;50.480;12.110;2023-11-21T02:09:06;97062.69;;;6.59;73.65
82148;BME280;71718;50.480;12.110;2023-11-21T02:11:32;97063.06;;;6.56;73.18
82148;BME280;71718;50.480;12.110;2023-11-21T02:13:59;97063.25;;;6.54;73.79
82148;BME280;71718;50.480;12.110;2023-11-21T02:16:25;97061.47;;;6.55;73.20
82148;BME280;71718;50.480;12.110;2023-11-21T02:18:52;97063.44;;;6.53;73.60
82148;BME280;71718;50.480;12.110;2023-11-21T02:21:19;97061.28;;;6.50;73.40
82148;BME280;71718;50.480;12.110;2023-11-21T02:23:45;97060.66;;;6.48;73.64
82148;BME280;71718;50.480;12.110;2023-11-21T02:26:12;97061.25;;;6.43;73.74
82148;BME280;71718;50.480;12.110;2023-11-21T02:28:40;97063.22;;;6.41;73.83
82148;BME280;71718;50.480;12.110;2023-11-21T02:31:06;97062.81;;;6.38;74.16
82148;BME280;71718;50.480;12.110;2023-11-21T02:33:33;97068.94;;;6.37;74.04
82148;BME280;71718;50.480;12.110;2023-11-21T02:36:01;97057.03;;;6.36;74.03
82148;BME280;71718;50.480;12.110;2023-11-21T02:38:27;97065.78;;;6.35;74.21
82148;BME280;71718;50.480;12.110;2023-11-21T02:40:54;97070.31;;;6.32;74.10
82148;BME280;71718;50.480;12.110;2023-11-21T02:43:20;97066.75;;;6.33;74.32
82148;BME280;71718;50.480;12.110;2023-11-21T02:45:47;97066.75;;;6.33;74.29
82148;BME280;71718;50.480;12.110;2023-11-21T02:48:13;97067.34;;;6.36;74.58
82148;BME280;71718;50.480;12.110;2023-11-21T02:50:40;97060.41;;;6.36;73.99
82148;BME280;71718;50.480;12.110;2023-11-21T02:53:06;97064.59;;;6.37;74.32
82148;BME280;71718;50.480;12.110;2023-11-21T02:55:32;97061.81;;;6.39;74.23
82148;BME280;71718;50.480;12.110;2023-11-21T02:57:59;97064.41;;;6.39;73.90
82148;BME280;71718;50.480;12.110;2023-11-21T03:00:25;97065.38;;;6.38;73.84
82148;BME280;71718;50.480;12.110;2023-11-21T03:02:53;97060.41;;;6.36;73.97
82148;BME280;71718;50.480;12.110;2023-11-21T03:05:19;97056.25;;;6.35;74.01
82148;BME280;71718;50.480;12.110;2023-11-21T03:07:45;97057.84;;;6.36;74.07
82148;BME280;71718;50.480;12.110;2023-11-21T03:10:12;97060.41;;;6.36;73.85
82148;BME280;71718;50.480;12.110;2023-11-21T03:12:39;97061.41;;;6.35;74.28
82148;BME280;71718;50.480;12.110;2023-11-21T03:15:06;97068.16;;;6.36;74.09
82148;BME280;71718;50.480;12.110;2023-11-21T03:17:33;97068.16;;;6.36;73.91
82148;BME280;71718;50.480;12.110;2023-11-21T03:20:00;97061.81;;;6.39;73.65
82148;BME280;71718;50.480;12.110;2023-11-21T03:22:26;97070.34;;;6.39;73.49
82148;BME280;71718;50.480;12.110;2023-11-21T03:24:53;97073.75;;;6.40;73.73
82148;BME280;71718;50.480;12.110;2023-11-21T03:27:19;97074.50;;;6.40;73.84
82148;BME280;71718;50.480;12.110;2023-11-21T03:29:46;97071.34;;;6.38;73.68
82148;BME280;71718;50.480;12.110;2023-11-21T03:32:12;97080.25;;;6.36;74.06
82148;BME280;71718;50.480;12.110;2023-11-21T03:34:56;97083.22;;;6.32;74.00
82148;BME280;71718;50.480;12.110;2023-11-21T03:37:24;97083.03;;;6.34;74.16
82148;BME280;71718;50.480;12.110;2023-11-21T03:39:50;97080.25;;;6.36;73.87
82148;BME280;71718;50.480;12.110;2023-11-21T03:42:17;97078.47;;;6.36;73.62
82148;BME280;71718;50.480;12.110;2023-11-21T03:44:43;97079.44;;;6.35;73.71
82148;BME280;71718;50.480;12.110;2023-11-21T03:47:10;97086.19;;;6.36;73.75
82148;BME280;71718;50.480;12.110;2023-11-21T03:49:37;97084.41;;;6.37;73.61
82148;BME280;71718;50.480;12.110;2023-11-21T03:52:04;97080.06;;;6.37;73.28
82148;BME280;71718;50.480;12.110;2023-11-21T03:54:31;97079.25;;;6.37;73.57
82148;BME280;71718;50.480;12.110;2023-11-21T03:56:57;97086.03;;;6.38;73.47
82148;BME280;71718;50.480;12.110;2023-11-21T03:59:23;97080.06;;;6.37;73.30
82148;BME280;71718;50.480;12.110;2023-11-21T04:01:50;97083.44;;;6.38;73.63
82148;BME280;71718;50.480;12.110;2023-11-21T04:04:16;97076.50;;;6.38;73.50
82148;BME280;71718;50.480;12.110;2023-11-21T04:06:43;97078.28;;;6.38;73.14
82148;BME280;71718;50.480;12.110;2023-11-21T04:09:09;97080.06;;;6.37;73.45
82148;BME280;71718;50.480;12.110;2023-11-21T04:11:36;97080.63;;;6.32;73.90
82148;BME280;71718;50.480;12.110;2023-11-21T04:14:02;97087.97;;;6.29;73.59
82148;BME280;71718;50.480;12.110;2023-11-21T04:16:29;97089.94;;;6.27;73.75
82148;BME280;71718;50.480;12.110;2023-11-21T04:18:55;97082.19;;;6.27;73.96
82148;BME280;71718;50.480;12.110;2023-11-21T04:21:21;97090.56;;;6.29;74.00
82148;BME280;71718;50.480;12.110;2023-11-21T04:23:48;97099.09;;;6.29;73.59
82148;BME280;71718;50.480;12.110;2023-11-21T04:26:14;97096.69;;;6.28;73.46
82148;BME280;71718;50.480;12.110;2023-11-21T04:28:41;97105.22;;;6.28;73.50
82148;BME280;71718;50.480;12.110;2023-11-21T04:31:07;97108.78;;;6.27;73.44
82148;BME280;71718;50.480;12.110;2023-11-21T04:33:33;97113.75;;;6.29;73.49
82148;BME280;71718;50.480;12.110;2023-11-21T04:36:00;97111.97;;;6.29;73.31
82148;BME280;71718;50.480;12.110;2023-11-21T04:38:26;97100.88;;;6.29;73.86
82148;BME280;71718;50.480;12.110;2023-11-21T04:40:53;97098.28;;;6.29;73.61
82148;BME280;71718;50.480;12.110;2023-11-21T04:43:19;97104.59;;;6.26;73.35
82148;BME280;71718;50.480;12.110;2023-11-21T04:45:45;97104.78;;;6.25;73.89
82148;BME280;71718;50.480;12.110;2023-11-21T04:48:12;97107.94;;;6.20;73.87
82148;BME280;71718;50.480;12.110;2023-11-21T04:50:38;97117.47;;;6.20;74.06
82148;BME280;71718;50.480;12.110;2023-11-21T04:53:05;97113.84;;;6.14;74.46
82148;BME280;71718;50.480;12.110;2023-11-21T04:55:31;97114.78;;;6.07;74.21
82148;BME280;71718;50.480;12.110;2023-11-21T04:57:57;97114.38;;;6.03;74.27
82148;BME280;71718;50.480;12.110;2023-11-21T05:00:24;97118.13;;;6.01;74.70
82148;BME280;71718;50.480;12.110;2023-11-21T05:02:50;97116.34;;;6.01;74.83
82148;BME280;71718;50.480;12.110;2023-11-21T05:05:17;97123.91;;;6.03;74.18
82148;BME280;71718;50.480;12.110;2023-11-21T05:07:44;97123.91;;;6.03;74.90
82148;BME280;71718;50.480;12.110;2023-11-21T05:10:10;97127.06;;;6.05;74.34
82148;BME280;71718;50.480;12.110;2023-11-21T05:12:37;97126.69;;;6.08;74.42
82148;BME280;71718;50.480;12.110;2023-11-21T05:15:04;97125.72;;;6.09;74.05
82148;BME280;71718;50.480;12.110;2023-11-21T05:17:31;97123.31;;;6.07;74.63
82148;BME280;71718;50.480;12.110;2023-11-21T05:19:57;97126.25;;;6.04;74.61
82148;BME280;71718;50.480;12.110;2023-11-21T05:22:24;97129.22;;;6.01;74.00
82148;BME280;71718;50.480;12.110;2023-11-21T05:24:50;97126.66;;;6.01;74.24
82148;BME280;71718;50.480;12.110;2023-11-21T05:27:17;97138.38;;;6.04;74.31
82148;BME280;71718;50.480;12.110;2023-11-21T05:29:43;97128.84;;;6.04;74.41
82148;BME280;71718;50.480;12.110;2023-11-21T05:32:09;97129.47;;;6.06;73.97
82148;BME280;71718;50.480;12.110;2023-11-21T05:34:36;97128.25;;;6.02;74.02
82148;BME280;71718;50.480;12.110;2023-11-21T05:37:02;97129.22;;;6.01;74.21
82148;BME280;71718;50.480;12.110;2023-11-21T05:39:29;97135.19;;;6.02;74.29
82148;BME280;71718;50.480;12.110;2023-11-21T05:41:55;97131.00;;;6.01;74.03
82148;BME280;71718;50.480;12.110;2023-11-21T05:44:22;97142.91;;;6.02;74.24
82148;BME280;71718;50.480;12.110;2023-11-21T05:46:48;97147.09;;;6.03;73.90
82148;BME280;71718;50.480;12.110;2023-11-21T05:49:15;97138.97;;;6.06;73.93
82148;BME280;71718;50.480;12.110;2023-11-21T05:51:41;97150.09;;;6.06;73.90
82148;BME280;71718;50.480;12.110;2023-11-21T05:54:08;97153.47;;;6.07;74.07
82148;BME280;71718;50.480;12.110;2023-11-21T05:56:34;97157.00;;;6.06;73.77
82148;BME280;71718;50.480;12.110;2023-11-21T05:59:00;97154.44;;;6.06;74.37
82148;BME280;71718;50.480;12.110;2023-11-21T06:01:27;97153.47;;;6.07;74.38
82148;BME280;71718;50.480;12.110;2023-11-21T06:03:54;97152.66;;;6.06;73.92
82148;BME280;71718;50.480;12.110;2023-11-21T06:06:21;97165.16;;;6.09;73.82
82148;BME280;71718;50.480;12.110;2023-11-21T06:08:48;97166.59;;;6.12;74.11
82148;BME280;71718;50.480;12.110;2023-11-21T06:11:15;97163.22;;;6.11;74.00
82148;BME280;71718;50.480;12.110;2023-11-21T06:13:41;97165.63;;;6.13;73.66
82148;BME280;71718;50.480;12.110;2023-11-21T06:16:08;97166.44;;;6.13;73.44
82148;BME280;71718;50.480;12.110;2023-11-21T06:18:34;97169.19;;;6.12;74.05
82148;BME280;71718;50.480;12.110;2023-11-21T06:21:01;97170.31;;;6.09;73.92
82148;BME280;71718;50.480;12.110;2023-11-21T06:23:27;97182.78;;;6.06;73.53
82148;BME280;71718;50.480;12.110;2023-11-21T06:25:53;97180.22;;;6.06;73.72
82148;BME280;71718;50.480;12.110;2023-11-21T06:28:20;97181.00;;;6.06;73.61
82148;BME280;71718;50.480;12.110;2023-11-21T06:30:46;97186.00;;;6.08;73.46
82148;BME280;71718;50.480;12.110;2023-11-21T06:33:13;97189.53;;;6.07;73.45
82148;BME280;71718;50.480;12.110;2023-11-21T06:35:39;97188.34;;;6.03;73.63
82148;BME280;71718;50.480;12.110;2023-11-21T06:38:06;97189.09;;;5.97;73.65
82148;BME280;71718;50.480;12.110;2023-11-21T06:40:32;97189.41;;;5.87;74.36
82148;BME280;71718;50.480;12.110;2023-11-21T06:42:58;97186.53;;;5.75;74.50
82148;BME280;71718;50.480;12.110;2023-11-21T06:45:25;97190.59;;;5.63;75.14
82148;BME280;71718;50.480;12.110;2023-11-21T06:47:52;97195.06;;;5.55;75.14
82148;BME280;71718;50.480;12.110;2023-11-21T06:50:18;97190.06;;;5.46;75.48
82148;BME280;71718;50.480;12.110;2023-11-21T06:52:45;97191.38;;;5.42;75.85
82148;BME280;71718;50.480;12.110;2023-11-21T06:55:11;97203.13;;;5.45;76.14
82148;BME280;71718;50.480;12.110;2023-11-21T06:57:38;97211.44;;;5.47;76.00
82148;BME280;71718;50.480;12.110;2023-11-21T07:00:05;97216.59;;;5.47;76.03
82148;BME280;71718;50.480;12.110;2023-11-21T07:02:32;97223.34;;;5.48;75.80
82148;BME280;71718;50.480;12.110;2023-11-21T07:04:58;97224.88;;;5.42;76.12
82148;BME280;71718;50.480;12.110;2023-11-21T07:07:25;97222.84;;;5.38;76.44
82148;BME280;71718;50.480;12.110;2023-11-21T07:09:51;97222.00;;;5.31;76.51
82148;BME280;71718;50.480;12.110;2023-11-21T07:12:17;97226.09;;;5.25;77.13
82148;BME280;71718;50.480;12.110;2023-11-21T07:14:44;97221.25;;;5.16;77.37
82148;BME280;71718;50.480;12.110;2023-11-21T07:17:11;97226.31;;;5.09;77.21
82148;BME280;71718;50.480;12.110;2023-11-21T07:19:38;97225.84;;;5.05;77.38
82148;BME280;71718;50.480;12.110;2023-11-21T07:22:05;97232.34;;;5.01;77.92
82148;BME280;71718;50.480;12.110;2023-11-21T07:24:32;97234.66;;;4.96;78.03
82148;BME280;71718;50.480;12.110;2023-11-21T07:26:58;97244.97;;;4.96;78.16
82148;BME280;71718;50.480;12.110;2023-11-21T07:29:24;97239.00;;;4.96;77.75
82148;BME280;71718;50.480;12.110;2023-11-21T07:31:52;97244.78;;;4.98;77.86
82148;BME280;71718;50.480;12.110;2023-11-21T07:34:22;97255.88;;;4.98;77.84
82148;BME280;71718;50.480;12.110;2023-11-21T07:36:49;97258.88;;;5.02;77.59
82148;BME280;71718;50.480;12.110;2023-11-21T07:39:15;97256.94;;;5.04;77.39
82148;BME280;71718;50.480;12.110;2023-11-21T07:41:41;97261.28;;;5.03;77.18
82148;BME280;71718;50.480;12.110;2023-11-21T07:44:08;97267.41;;;5.02;76.65
82148;BME280;71718;50.480;12.110;2023-11-21T07:46:34;97267.84;;;5.06;77.07
82148;BME280;71718;50.480;12.110;2023-11-21T07:49:01;97260.75;;;5.08;76.95
82148;BME280;71718;50.480;12.110;2023-11-21T07:51:27;97256.22;;;5.10;76.69
82148;BME280;71718;50.480;12.110;2023-11-21T07:53:53;97265.34;;;5.13;76.59
82148;BME280;71718;50.480;12.110;2023-11-21T07:56:20;97269.34;;;5.15;76.11
82148;BME280;71718;50.480;12.110;2023-11-21T07:58:46;97274.94;;;5.19;75.98
82148;BME280;71718;50.480;12.110;2023-11-21T08:01:13;97280.97;;;5.26;75.66
82148;BME280;71718;50.480;12.110;2023-11-21T08:03:39;97278.09;;;5.35;75.92
82148;BME280;71718;50.480;12.110;2023-11-21T08:06:06;97282.78;;;5.46;75.54
82148;BME280;71718;50.480;12.110;2023-11-21T08:08:32;97286.09;;;5.62;74.89
82148;BME280;71718;50.480;12.110;2023-11-21T08:10:59;97285.50;;;5.81;73.66
82148;BME280;71718;50.480;12.110;2023-11-21T08:13:27;97284.06;;;6.00;73.16
82148;BME280;71718;50.480;12.110;2023-11-21T08:15:55;97287.63;;;6.20;72.29
82148;BME280;71718;50.480;12.110;2023-11-21T08:18:22;97276.25;;;6.36;71.14
82148;BME280;71718;50.480;12.110;2023-11-21T08:20:48;97278.31;;;6.47;70.97
82148;BME280;71718;50.480;12.110;2023-11-21T08:23:15;97277.78;;;6.58;70.33
82148;BME280;71718;50.480;12.110;2023-11-21T08:25:45;97287.97;;;6.66;69.81
82148;BME280;71718;50.480;12.110;2023-11-21T08:28:12;97291.00;;;6.76;69.18
82148;BME280;71718;50.480;12.110;2023-11-21T08:30:39;97292.81;;;6.82;69.33
82148;BME280;71718;50.480;12.110;2023-11-21T08:33:05;97289.88;;;6.85;69.01
82148;BME280;71718;50.480;12.110;2023-11-21T08:35:32;97284.75;;;6.92;68.95
82148;BME280;71718;50.480;12.110;2023-11-21T08:37:58;97287.56;;;6.97;68.75
82148;BME280;71718;50.480;12.110;2023-11-21T08:40:25;97292.38;;;7.06;68.12
82148;BME280;71718;50.480;12.110;2023-11-21T08:42:52;97288.63;;;7.15;68.14
82148;BME280;71718;50.480;12.110;2023-11-21T08:45:19;97297.59;;;7.26;67.91
82148;BME280;71718;50.480;12.110;2023-11-21T08:47:45;97294.03;;;7.34;68.55
82148;BME280;71718;50.480;12.110;2023-11-21T08:50:12;97297.84;;;7.38;67.35
82148;BME280;71718;50.480;12.110;2023-11-21T08:52:39;97291.88;;;7.44;66.94
82148;BME280;71718;50.480;12.110;2023-11-21T08:55:06;97290.50;;;7.41;66.74
82148;BME280;71718;50.480;12.110;2023-11-21T08:57:36;97300.44;;;7.38;67.18
82148;BME280;71718;50.480;12.110;2023-11-21T09:00:06;97302.00;;;7.39;69.70
82148;BME280;71718;50.480;12.110;2023-11-21T09:02:33;97305.03;;;7.49;70.98
82148;BME280;71718;50.480;12.110;2023-11-21T09:05:00;97308.63;;;7.54;69.19
82148;BME280;71718;50.480;12.110;2023-11-21T09:07:27;97312.66;;;7.64;67.73
82148;BME280;71718;50.480;12.110;2023-11-21T09:09:53;97303.84;;;7.51;67.39
82148;BME280;71718;50.480;12.110;2023-11-21T09:12:20;97313.19;;;7.46;67.41
82148;BME280;71718;50.480;12.110;2023-11-21T09:14:46;97316.16;;;7.49;67.49
82148;BME280;71718;50.480;12.110;2023-11-21T09:17:12;97320.31;;;7.44;67.53
82148;BME280;71718;50.480;12.110;2023-11-21T09:19:42;97321.72;;;7.46;68.08
82148;BME280;71718;50.480;12.110;2023-11-21T09:22:08;97320.75;;;7.47;66.60
82148;BME280;71718;50.480;12.110;2023-11-21T09:24:34;97327.69;;;7.47;67.49
82148;BME280;71718;50.480;12.110;2023-11-21T09:27:03;97330.25;;;7.40;67.39
82148;BME280;71718;50.480;12.110;2023-11-21T09:29:30;97327.69;;;7.47;68.30
82148;BME280;71718;50.480;12.110;2023-11-21T09:31:56;97332.88;;;7.53;68.48
82148;BME280;71718;50.480;12.110;2023-11-21T09:34:22;97334.31;;;7.63;67.17
82148;BME280;71718;50.480;12.110;2023-11-21T09:36:49;97332.69;;;7.61;66.80
82148;BME280;71718;50.480;12.110;2023-11-21T09:39:15;97338.50;;;7.64;67.19
82148;BME280;71718;50.480;12.110;2023-11-21T09:42:19;97334.72;;;7.73;67.80
82148;BME280;71718;50.480;12.110;2023-11-21T09:45:03;97345.69;;;7.75;66.23
82148;BME280;71718;50.480;12.110;2023-11-21T09:47:33;97342.09;;;7.76;67.00
82148;BME280;71718;50.480;12.110;2023-11-21T09:50:02;97342.84;;;7.70;66.38
82148;BME280;71718;50.480;12.110;2023-11-21T09:52:29;97345.81;;;7.60;66.62
82148;BME280;71718;50.480;12.110;2023-11-21T09:54:56;97350.78;;;7.61;67.67
82148;BME280;71718;50.480;12.110;2023-11-21T09:57:23;97348.59;;;7.65;67.58
82148;BME280;71718;50.480;12.110;2023-11-21T09:59:54;97347.84;;;7.71;67.00
82148;BME280;71718;50.480;12.110;2023-11-21T10:02:24;97346.22;;;7.57;66.37
82148;BME280;71718;50.480;12.110;2023-11-21T10:04:52;97351.09;;;7.39;67.48
82148;BME280;71718;50.480;12.110;2023-11-21T10:07:20;97351.53;;;7.42;68.79
82148;BME280;71718;50.480;12.110;2023-11-21T10:09:47;97351.91;;;7.39;68.00
82148;BME280;71718;50.480;12.110;2023-11-21T10:12:15;97352.44;;;7.28;68.00
82148;BME280;71718;50.480;12.110;2023-11-21T10:14:42;97353.31;;;7.07;68.23
82148;BME280;71718;50.480;12.110;2023-11-21T10:17:12;97348.50;;;6.98;69.23
82148;BME280;71718;50.480;12.110;2023-11-21T10:19:40;97354.06;;;6.95;69.85
82148;BME280;71718;50.480;12.110;2023-11-21T10:22:07;97345.91;;;6.91;70.23
82148;BME280;71718;50.480;12.110;2023-11-21T10:24:33;97347.97;;;7.09;70.18
82148;BME280;71718;50.480;12.110;2023-11-21T10:27:14;97351.19;;;7.11;70.62
82148;BME280;71718;50.480;12.110;2023-11-21T10:29:40;97355.00;;;7.28;68.88
82148;BME280;71718;50.480;12.110;2023-11-21T10:32:07;97351.97;;;7.11;70.10
82148;BME280;71718;50.480;12.110;2023-11-21T10:34:33;97354.91;;;7.08;69.61
82148;BME280;71718;50.480;12.110;2023-11-21T10:37:11;97355.75;;;7.15;70.59
82148;BME280;71718;50.480;12.110;2023-11-21T10:39:38;97356.41;;;7.24;70.13
82148;BME280;71718;50.480;12.110;2023-11-21T10:42:08;97363.56;;;7.29;70.08
82148;BME280;71718;50.480;12.110;2023-11-21T10:44:34;97362.97;;;7.27;70.69
82148;BME280;71718;50.480;12.110;2023-11-21T10:47:01;97355.81;;;7.22;70.86
82148;BME280;71718;50.480;12.110;2023-11-21T10:49:28;97362.34;;;7.25;72.09
82148;BME280;71718;50.480;12.110;2023-11-21T10:51:55;97358.06;;;7.38;70.34
82148;BME280;71718;50.480;12.110;2023-11-21T10:54:24;97359.91;;;7.51;69.98
82148;BME280;71718;50.480;12.110;2023-11-21T10:56:56;97357.94;;;7.53;68.75
82148;BME280;71718;50.480;12.110;2023-11-21T10:59:23;97367.03;;;7.42;69.61
82148;BME280;71718;50.480;12.110;2023-11-21T11:01:50;97365.78;;;7.32;70.24
82148;BME280;71718;50.480;12.110;2023-11-21T11:04:19;97370.72;;;7.27;70.14
82148;BME280;71718;50.480;12.110;2023-11-21T11:06:54;97379.19;;;7.14;70.53
82148;BME280;71718;50.480;12.110;2023-11-21T11:09:20;97370.06;;;7.18;71.14
82148;BME280;71718;50.480;12.110;2023-11-21T11:11:47;97369.53;;;7.29;70.50
82148;BME280;71718;50.480;12.110;2023-11-21T11:14:14;97374.16;;;7.40;70.84
82148;BME280;71718;50.480;12.110;2023-11-21T11:16:41;97369.75;;;7.34;70.30
82148;BME280;71718;50.480;12.110;2023-11-21T11:19:08;97369.34;;;7.31;71.68
82148;BME280;71718;50.480;12.110;2023-11-21T11:21:46;97366.72;;;7.24;71.35
82148;BME280;71718;50.480;12.110;2023-11-21T11:27:27;97365.13;;;7.23;71.18
82148;BME280;71718;50.480;12.110;2023-11-21T11:30:00;97376.38;;;7.09;71.91
82148;BME280;71718;50.480;12.110;2023-11-21T11:35:31;97378.91;;;7.02;70.93
82148;BME280;71718;50.480;12.110;2023-11-21T11:38:01;97368.75;;;6.94;71.83
82148;BME280;71718;50.480;12.110;2023-11-21T11:40:39;97369.13;;;6.91;71.64
82148;BME280;71718;50.480;12.110;2023-11-21T11:43:06;97377.53;;;7.00;71.40
82148;BME280;71718;50.480;12.110;2023-11-21T11:45:33;97375.34;;;7.03;71.58
82148;BME280;71718;50.480;12.110;2023-11-21T11:48:00;97376.38;;;7.09;72.02
82148;BME280;71718;50.480;12.110;2023-11-21T11:50:27;97376.25;;;7.24;71.48
82148;BME280;71718;50.480;12.110;2023-11-21T11:52:54;97378.50;;;7.33;70.68
82148;BME280;71718;50.480;12.110;2023-11-21T11:55:21;97379.50;;;7.39;71.67
82148;BME280;71718;50.480;12.110;2023-11-21T11:57:53;97389.06;;;7.38;71.61
82148;BME280;71718;50.480;12.110;2023-11-21T12:00:33;97395.66;;;7.13;71.44
82148;BME280;71718;50.480;12.110;2023-11-21T12:03:01;97392.13;;;6.86;72.94
82148;BME280;71718;50.480;12.110;2023-11-21T12:05:30;97388.78;;;6.64;72.77
82148;BME280;71718;50.480;12.110;2023-11-21T12:07:59;97400.59;;;6.52;74.04
82148;BME280;71718;50.480;12.110;2023-11-21T12:10:27;97401.38;;;6.74;73.93
82148;BME280;71718;50.480;12.110;2023-11-21T12:12:59;97403.94;;;6.74;73.39
82148;BME280;71718;50.480;12.110;2023-11-21T12:15:26;97402.28;;;6.66;73.01
82148;BME280;71718;50.480;12.110;2023-11-21T12:17:53;97415.56;;;6.63;73.68
82148;BME280;71718;50.480;12.110;2023-11-21T12:20:21;97416.06;;;6.52;73.47
82148;BME280;71718;50.480;12.110;2023-11-21T12:22:50;97419.22;;;6.48;73.46
82148;BME280;71718;50.480;12.110;2023-11-21T12:25:23;97419.50;;;6.38;73.92
82148;BME280;71718;50.480;12.110;2023-11-21T12:27:51;97419.63;;;6.30;74.82
82148;BME280;71718;50.480;12.110;2023-11-21T12:30:19;97415.81;;;6.26;74.66
82148;BME280;71718;50.480;12.110;2023-11-21T12:32:53;97428.03;;;6.17;74.71
82148;BME280;71718;50.480;12.110;2023-11-21T12:35:22;97427.97;;;5.96;75.02
82148;BME280;71718;50.480;12.110;2023-11-21T12:37:50;97427.16;;;6.10;75.61
82148;BME280;71718;50.480;12.110;2023-11-21T12:40:17;97426.88;;;6.20;75.38
82148;BME280;71718;50.480;12.110;2023-11-21T12:42:46;97430.06;;;6.22;74.83
82148;BME280;71718;50.480;12.110;2023-11-21T12:47:43;97425.91;;;6.42;74.44
82148;BME280;71718;50.480;12.110;2023-11-21T12:50:09;97427.50;;;6.43;74.15
82148;BME280;71718;50.480;12.110;2023-11-21T12:52:36;97433.72;;;6.49;74.40
82148;BME280;71718;50.480;12.110;2023-11-21T12:55:02;97435.91;;;6.30;74.28
82148;BME280;71718;50.480;12.110;2023-11-21T12:57:29;97432.66;;;6.07;74.74
82148;BME280;71718;50.480;12.110;2023-11-21T12:59:58;97429.81;;;6.17;75.73
82148;BME280;71718;50.480;12.110;2023-11-21T13:02:30;97436.31;;;6.13;75.86
82148;BME280;71718;50.480;12.110;2023-11-21T13:04:57;97434.59;;;6.20;75.11
82148;BME280;71718;50.480;12.110;2023-11-21T13:07:23;97441.19;;;6.08;75.32
82148;BME280;71718;50.480;12.110;2023-11-21T13:09:53;97446.28;;;6.01;76.27